Time;durP1;ratioP1;P1;durP2;ratioP2;P2;SDS_P1;SDS_P2;PMS_P1;PMS_P2;Temp;Humidity;BMP_temperature;BMP_pressure;BME280_temperature;BME280_humidity;BME280_pressure;Samples;Min_cycle;Max_cycle;Signal;HPM_P1;HPM_P2
2021/03/10 00:02:07;;;;;;;46.63;32.95;;;4.30;86.00;;;;;;5046263;28;20039;-73
2021/03/10 00:04:33;;;;;;;44.78;34.22;;;4.40;86.00;;;;;;5047618;28;20100;-72
2021/03/10 00:06:58;;;;;;;43.75;32.80;;;4.30;86.10;;;;;;5051708;28;20626;-78
2021/03/10 00:09:24;;;;;;;46.50;33.47;;;4.40;86.10;;;;;;5050028;28;20040;-75
2021/03/10 00:11:49;;;;;;;46.97;32.85;;;4.30;86.10;;;;;;5052317;28;20150;-72
2021/03/10 00:14:15;;;;;;;45.55;33.58;;;4.30;86.10;;;;;;5051067;28;20483;-75
2021/03/10 00:16:41;;;;;;;47.72;33.13;;;4.30;86.10;;;;;;5054761;28;20032;-79
2021/03/10 00:19:07;;;;;;;52.17;35.67;;;4.30;86.00;;;;;;5051670;28;20403;-78
2021/03/10 00:21:32;;;;;;;49.28;35.75;;;4.30;86.30;;;;;;5052223;28;20028;-72
2021/03/10 00:23:58;;;;;;;49.35;35.20;;;4.30;86.40;;;;;;5049043;28;20028;-74
2021/03/10 00:26:23;;;;;;;48.58;34.35;;;4.30;86.50;;;;;;5051546;28;20035;-74
2021/03/10 00:28:49;;;;;;;47.70;33.90;;;4.30;86.40;;;;;;5050717;28;20051;-77
2021/03/10 00:31:15;;;;;;;44.17;33.15;;;4.30;86.20;;;;;;5046348;28;20089;-72
2021/03/10 00:33:40;;;;;;;45.65;34.05;;;4.20;86.20;;;;;;5052050;28;20119;-77
2021/03/10 00:36:06;;;;;;;49.13;33.92;;;4.20;86.30;;;;;;5047605;28;20040;-77
2021/03/10 00:38:32;;;;;;;51.25;33.45;;;4.20;86.30;;;;;;5058803;28;20044;-72
2021/03/10 00:40:58;;;;;;;44.10;32.17;;;4.20;86.40;;;;;;5052359;28;20094;-77
2021/03/10 00:43:23;;;;;;;43.15;33.05;;;4.20;86.40;;;;;;5053271;28;20309;-74
2021/03/10 00:45:49;;;;;;;42.50;31.30;;;4.20;86.20;;;;;;5049248;28;20036;-72
2021/03/10 00:48:15;;;;;;;46.15;31.92;;;4.20;86.20;;;;;;5049513;28;20052;-72
2021/03/10 00:50:40;;;;;;;47.28;33.05;;;4.20;86.20;;;;;;5053126;28;20024;-72
2021/03/10 00:53:06;;;;;;;41.65;30.15;;;4.10;86.40;;;;;;5051351;28;20061;-74
2021/03/10 00:55:32;;;;;;;46.25;31.70;;;4.10;86.40;;;;;;5052261;28;20482;-73
2021/03/10 00:57:57;;;;;;;45.00;31.83;;;4.10;86.50;;;;;;5052951;28;20387;-74
2021/03/10 01:00:24;;;;;;;44.22;31.10;;;4.10;86.50;;;;;;5051665;28;20615;-72
2021/03/10 01:02:49;;;;;;;44.03;30.48;;;4.20;86.60;;;;;;5054819;28;20040;-77
2021/03/10 01:05:15;;;;;;;46.55;31.05;;;4.20;86.60;;;;;;5049899;28;20043;-72
2021/03/10 01:07:41;;;;;;;43.70;31.00;;;4.20;86.60;;;;;;5057344;28;20379;-74
2021/03/10 01:10:09;;;;;;;43.40;30.60;;;4.20;86.50;;;;;;5055234;28;20542;-72
2021/03/10 01:12:35;;;;;;;48.85;31.58;;;4.20;86.50;;;;;;5055947;28;20039;-72
2021/03/10 01:15:04;;;;;;;43.25;30.00;;;4.10;86.60;;;;;;5055237;28;20044;-72
2021/03/10 01:17:30;;;;;;;43.08;30.23;;;4.10;86.50;;;;;;5053883;28;20151;-73
2021/03/10 01:19:55;;;;;;;41.65;29.67;;;4.10;86.60;;;;;;5056225;28;20403;-74
2021/03/10 01:22:21;;;;;;;43.97;30.58;;;4.10;86.60;;;;;;5055852;28;20045;-75
2021/03/10 01:24:47;;;;;;;39.72;30.02;;;4.10;86.70;;;;;;5058581;28;20048;-74
2021/03/10 01:27:17;;;;;;;43.00;29.80;;;4.10;86.70;;;;;;5056071;28;20123;-76
2021/03/10 01:29:43;;;;;;;41.38;29.27;;;4.10;86.70;;;;;;5055942;28;21002;-71
2021/03/10 01:32:09;;;;;;;49.42;30.75;;;4.10;86.90;;;;;;5054864;28;20112;-73
2021/03/10 01:34:35;;;;;;;42.15;31.00;;;4.10;86.90;;;;;;5051353;28;20551;-73
2021/03/10 01:37:00;;;;;;;46.97;31.83;;;4.10;87.00;;;;;;5058432;28;20027;-74
2021/03/10 01:39:26;;;;;;;47.17;31.13;;;4.10;87.10;;;;;;5056647;28;20081;-77
2021/03/10 01:41:51;;;;;;;50.83;31.13;;;4.10;87.20;;;;;;5054699;28;20417;-73
2021/03/10 01:44:17;;;;;;;47.58;31.65;;;4.10;87.10;;;;;;5049545;28;20065;-76
2021/03/10 01:46:43;;;;;;;47.92;32.75;;;4.20;87.20;;;;;;5055613;28;20106;-74
2021/03/10 01:49:09;;;;;;;47.20;33.72;;;4.10;87.20;;;;;;5054532;28;20622;-72
2021/03/10 01:51:35;;;;;;;46.97;33.70;;;4.10;87.40;;;;;;5053198;28;20120;-73
2021/03/10 01:54:01;;;;;;;48.85;34.78;;;4.10;87.40;;;;;;5040231;28;20532;-73
2021/03/10 01:56:27;;;;;;;52.78;35.78;;;4.10;87.50;;;;;;5041906;28;20480;-79
2021/03/10 01:58:54;;;;;;;54.42;38.45;;;4.10;87.50;;;;;;5035138;28;20059;-73
2021/03/10 02:01:20;;;;;;;48.83;36.08;;;4.10;87.50;;;;;;5031160;28;20075;-75
2021/03/10 02:03:46;;;;;;;54.25;38.67;;;4.10;87.50;;;;;;5033681;28;20048;-74
2021/03/10 02:06:24;;;;;;;57.63;38.28;;;4.10;87.60;;;;;;5032890;28;20029;-72
2021/03/10 02:08:54;;;;;;;51.78;37.40;;;4.10;87.60;;;;;;5031786;28;20037;-76
2021/03/10 02:11:35;;;;;;;56.38;39.10;;;4.10;87.70;;;;;;5033354;28;20029;-74
2021/03/10 02:14:09;;;;;;;55.42;38.55;;;4.00;87.60;;;;;;5032756;28;20037;-73
2021/03/10 02:17:07;;;;;;;51.90;37.00;;;4.10;87.60;;;;;;5035225;28;20626;-72
2021/03/10 02:19:56;;;;;;;53.65;38.00;;;4.10;87.60;;;;;;5061423;28;20047;-73
2021/03/10 02:22:50;;;;;;;55.13;37.22;;;4.10;87.50;;;;;;5048044;28;20044;-78
2021/03/10 02:25:26;;;;;;;54.05;38.30;;;4.00;87.70;;;;;;5051075;28;20637;-72
2021/03/10 02:27:52;;;;;;;54.55;36.22;;;4.00;87.80;;;;;;5040088;28;20373;-74
2021/03/10 02:30:23;;;;;;;54.05;36.70;;;4.00;88.00;;;;;;5036883;28;20455;-72
2021/03/10 02:33:01;;;;;;;55.92;37.08;;;4.00;88.00;;;;;;5035598;28;20021;-75
2021/03/10 02:35:28;;;;;;;49.75;35.78;;;4.10;88.00;;;;;;5035997;28;20045;-72
2021/03/10 02:37:57;;;;;;;51.00;34.95;;;4.00;88.00;;;;;;5038158;28;20062;-72
2021/03/10 02:40:25;;;;;;;51.60;35.55;;;4.00;88.00;;;;;;5033330;28;20040;-72
2021/03/10 02:42:52;;;;;;;52.75;37.13;;;4.00;88.10;;;;;;5034127;28;20503;-72
2021/03/10 02:45:21;;;;;;;52.28;35.50;;;4.00;88.10;;;;;;5032585;28;20037;-75
2021/03/10 02:47:47;;;;;;;49.60;35.40;;;4.00;88.20;;;;;;5034296;28;20056;-77
2021/03/10 02:50:13;;;;;;;55.15;37.10;;;4.00;88.00;;;;;;5035023;28;20029;-72
2021/03/10 02:52:40;;;;;;;51.78;34.88;;;4.00;88.10;;;;;;5037189;28;20030;-77
2021/03/10 02:55:06;;;;;;;49.17;34.50;;;4.00;88.10;;;;;;5037827;28;20033;-75
2021/03/10 02:57:33;;;;;;;52.75;34.55;;;3.90;88.20;;;;;;5033315;28;20117;-73
2021/03/10 03:00:12;;;;;;;52.10;33.72;;;4.00;88.20;;;;;;5034285;28;20109;-73
2021/03/10 03:02:38;;;;;;;53.97;34.25;;;4.00;88.20;;;;;;5053794;28;20037;-75
2021/03/10 03:05:06;;;;;;;56.90;33.63;;;3.90;88.20;;;;;;5055175;28;20561;-74
2021/03/10 03:07:31;;;;;;;54.72;33.92;;;3.90;88.20;;;;;;5054329;28;20713;-81
2021/03/10 03:09:59;;;;;;;53.65;34.92;;;3.90;88.20;;;;;;5062516;28;20119;-73
2021/03/10 03:12:26;;;;;;;52.22;34.83;;;3.90;88.30;;;;;;5053126;28;20795;-75
2021/03/10 03:14:52;;;;;;;49.90;32.60;;;3.90;88.30;;;;;;5054073;28;20043;-80
2021/03/10 03:17:19;;;;;;;54.00;34.15;;;3.90;88.40;;;;;;5054437;28;20037;-73
2021/03/10 03:19:45;;;;;;;54.17;34.05;;;3.90;88.40;;;;;;5052328;28;20040;-72
2021/03/10 03:22:12;;;;;;;54.55;35.85;;;3.80;88.50;;;;;;5057218;28;20048;-73
2021/03/10 03:24:39;;;;;;;47.13;33.60;;;3.90;88.60;;;;;;5055217;28;21340;-74
2021/03/10 03:27:06;;;;;;;53.03;32.70;;;3.90;88.60;;;;;;5054895;28;20032;-74
2021/03/10 03:29:32;;;;;;;55.67;34.08;;;3.90;88.60;;;;;;5055643;28;20032;-74
2021/03/10 03:31:58;;;;;;;54.42;35.25;;;3.90;88.70;;;;;;5063661;28;20036;-76
2021/03/10 03:34:25;;;;;;;53.92;34.10;;;3.90;88.80;;;;;;5054343;28;20041;-73
2021/03/10 03:36:51;;;;;;;60.08;37.60;;;3.90;88.90;;;;;;5054134;28;20462;-81
2021/03/10 03:39:17;;;;;;;49.83;32.58;;;3.90;88.90;;;;;;5053828;28;21193;-80
2021/03/10 03:41:44;;;;;;;47.75;33.17;;;3.90;88.90;;;;;;5051737;28;20033;-75
2021/03/10 03:44:10;;;;;;;55.30;34.88;;;3.90;89.00;;;;;;5066456;28;20182;-73
2021/03/10 03:46:36;;;;;;;54.38;36.35;;;3.90;88.90;;;;;;5051503;28;20511;-72
2021/03/10 03:49:02;;;;;;;56.40;33.53;;;3.90;89.00;;;;;;5051632;28;20033;-75
2021/03/10 03:51:30;;;;;;;54.33;33.58;;;4.00;89.00;;;;;;5055688;28;20061;-78
2021/03/10 03:54:00;;;;;;;54.75;33.75;;;4.00;88.90;;;;;;5056344;28;20036;-72
2021/03/10 03:56:26;;;;;;;53.22;33.50;;;4.00;89.00;;;;;;5032843;28;20029;-73
2021/03/10 03:58:52;;;;;;;52.90;35.00;;;4.00;89.00;;;;;;5034998;28;20128;-72
2021/03/10 04:01:18;;;;;;;52.97;33.78;;;4.10;89.00;;;;;;5031270;28;20046;-73
2021/03/10 04:03:45;;;;;;;55.40;33.65;;;4.00;88.90;;;;;;5033479;28;20041;-72
2021/03/10 04:06:12;;;;;;;54.03;31.35;;;4.10;88.90;;;;;;5050766;28;20033;-72
2021/03/10 04:08:37;;;;;;;54.83;34.42;;;4.10;88.90;;;;;;5057396;28;20044;-73
2021/03/10 04:11:06;;;;;;;54.10;32.80;;;4.10;89.00;;;;;;5054277;28;20109;-74
2021/03/10 04:13:32;;;;;;;53.83;33.70;;;4.00;89.00;;;;;;5056737;28;20388;-73
2021/03/10 04:15:57;;;;;;;52.47;33.10;;;4.10;89.00;;;;;;5056701;28;20044;-77
2021/03/10 04:18:23;;;;;;;54.13;31.65;;;4.00;89.10;;;;;;5051867;28;20111;-76
2021/03/10 04:20:49;;;;;;;52.20;32.90;;;4.10;89.20;;;;;;5056117;28;20064;-72
2021/03/10 04:23:15;;;;;;;55.72;33.53;;;4.10;89.10;;;;;;5050911;28;20060;-72
2021/03/10 04:25:40;;;;;;;54.50;33.92;;;4.10;89.00;;;;;;5053842;28;20029;-75
2021/03/10 04:28:06;;;;;;;57.00;33.15;;;4.10;89.10;;;;;;5050470;28;20398;-75
2021/03/10 04:30:32;;;;;;;50.47;31.33;;;4.10;89.10;;;;;;5051105;28;20028;-77
2021/03/10 04:32:58;;;;;;;56.33;32.95;;;4.10;89.20;;;;;;5053697;28;20047;-75
2021/03/10 04:35:24;;;;;;;54.70;34.63;;;4.10;89.10;;;;;;5050600;28;20371;-73
2021/03/10 04:37:50;;;;;;;57.35;33.58;;;4.10;89.20;;;;;;5051997;28;20028;-74
2021/03/10 04:40:16;;;;;;;54.20;35.83;;;4.10;89.30;;;;;;5053279;28;20036;-73
2021/03/10 04:42:42;;;;;;;53.67;33.60;;;4.10;89.30;;;;;;5059066;28;20028;-72
2021/03/10 04:45:10;;;;;;;49.90;32.38;;;4.10;89.30;;;;;;5053836;28;20390;-73
2021/03/10 04:47:36;;;;;;;53.75;33.65;;;4.10;89.20;;;;;;5056780;28;20067;-73
2021/03/10 04:50:03;;;;;;;54.92;33.78;;;4.10;89.30;;;;;;5054748;28;20475;-75
2021/03/10 04:52:29;;;;;;;56.03;33.72;;;4.10;89.40;;;;;;5057883;28;20143;-73
2021/03/10 04:54:55;;;;;;;57.15;34.03;;;4.20;89.50;;;;;;5053578;28;20116;-77
2021/03/10 04:57:20;;;;;;;55.05;32.22;;;4.20;89.50;;;;;;5050787;28;20379;-74
2021/03/10 04:59:46;;;;;;;50.95;33.33;;;4.10;89.50;;;;;;5061889;28;20072;-75
2021/03/10 05:02:11;;;;;;;56.08;34.42;;;4.10;89.50;;;;;;5056715;28;20044;-80
2021/03/10 05:04:38;;;;;;;51.90;33.85;;;4.10;89.50;;;;;;5060080;28;20391;-75
2021/03/10 05:07:04;;;;;;;51.80;32.53;;;4.10;89.50;;;;;;5063380;28;20062;-73
2021/03/10 05:09:30;;;;;;;57.63;33.13;;;4.20;89.60;;;;;;5058186;28;20111;-80
2021/03/10 05:11:55;;;;;;;54.20;32.78;;;4.10;89.50;;;;;;5053458;28;20044;-72
2021/03/10 05:14:21;;;;;;;54.50;33.05;;;4.20;89.50;;;;;;5056642;28;20040;-72
2021/03/10 05:16:47;;;;;;;51.13;31.77;;;4.10;89.50;;;;;;5057295;28;20128;-73
2021/03/10 05:19:12;;;;;;;57.95;34.13;;;4.20;89.60;;;;;;5060603;28;20045;-73
2021/03/10 05:21:38;;;;;;;58.70;33.72;;;4.20;89.60;;;;;;5060087;28;20029;-74
2021/03/10 05:24:04;;;;;;;51.60;32.83;;;4.20;89.50;;;;;;5064606;28;21042;-72
2021/03/10 05:26:30;;;;;;;55.40;31.83;;;4.20;89.50;;;;;;5070112;28;20024;-83
2021/03/10 05:28:55;;;;;;;56.85;32.40;;;4.20;89.50;;;;;;5060720;28;20025;-75
2021/03/10 05:31:21;;;;;;;56.42;31.95;;;4.30;89.40;;;;;;5056456;28;20492;-74
2021/03/10 05:33:47;;;;;;;52.78;33.65;;;4.30;89.40;;;;;;5057979;28;20086;-75
2021/03/10 05:36:12;;;;;;;54.50;32.75;;;4.30;89.30;;;;;;5059441;28;20039;-72
2021/03/10 05:38:38;;;;;;;52.72;32.60;;;4.30;89.20;;;;;;5056287;28;20361;-73
2021/03/10 05:41:04;;;;;;;51.72;32.35;;;4.30;89.20;;;;;;5054252;28;20415;-74
2021/03/10 05:43:30;;;;;;;51.42;32.03;;;4.30;89.20;;;;;;5055654;28;20020;-73
2021/03/10 05:45:56;;;;;;;48.53;30.60;;;4.30;89.20;;;;;;5056606;28;20062;-73
2021/03/10 05:48:22;;;;;;;51.20;31.92;;;4.30;89.00;;;;;;5063340;28;20078;-75
2021/03/10 05:50:47;;;;;;;46.90;30.58;;;4.30;89.10;;;;;;5054975;28;20131;-75
2021/03/10 05:53:19;;;;;;;49.28;31.83;;;4.40;89.00;;;;;;5054166;28;20028;-72
2021/03/10 05:55:46;;;;;;;49.47;29.83;;;4.40;88.90;;;;;;5057574;28;20052;-72
2021/03/10 05:58:12;;;;;;;46.85;29.65;;;4.30;88.90;;;;;;5050275;28;20030;-73
2021/03/10 06:00:44;;;;;;;45.75;28.73;;;4.40;88.70;;;;;;5057335;28;20033;-77
2021/03/10 06:03:20;;;;;;;48.70;30.05;;;4.40;88.70;;;;;;5057887;28;20094;-72
2021/03/10 06:05:56;;;;;;;45.85;29.50;;;4.40;88.60;;;;;;5059006;28;20385;-75
2021/03/10 06:08:29;;;;;;;45.35;28.45;;;4.40;88.50;;;;;;5057553;28;20057;-73
2021/03/10 06:10:55;;;;;;;46.95;29.05;;;4.40;88.40;;;;;;5056115;28;20048;-75
2021/03/10 06:13:31;;;;;;;45.38;28.80;;;4.40;88.30;;;;;;5055273;28;20436;-72
2021/03/10 06:16:01;;;;;;;47.53;28.60;;;4.40;88.30;;;;;;5048023;28;20033;-74
2021/03/10 06:18:32;;;;;;;48.75;29.00;;;4.40;88.30;;;;;;5056192;28;20479;-75
2021/03/10 06:21:04;;;;;;;46.97;29.77;;;4.40;88.20;;;;;;5060387;28;20082;-73
2021/03/10 06:23:30;;;;;;;47.63;30.58;;;4.40;88.10;;;;;;5062444;28;20053;-74
2021/03/10 06:25:56;;;;;;;49.75;30.25;;;4.40;88.10;;;;;;5053893;28;20460;-70
2021/03/10 06:28:24;;;;;;;43.70;27.58;;;4.40;88.10;;;;;;5056082;28;20122;-69
2021/03/10 06:30:50;;;;;;;49.65;29.15;;;4.40;88.00;;;;;;5053658;28;20060;-70
2021/03/10 06:33:23;;;;;;;47.53;29.08;;;4.40;87.80;;;;;;5061724;28;20047;-69
2021/03/10 06:35:49;;;;;;;49.85;30.65;;;4.40;87.80;;;;;;5064494;28;20048;-69
2021/03/10 06:38:16;;;;;;;54.45;30.90;;;4.40;87.70;;;;;;5064541;28;20298;-69
2021/03/10 06:40:52;;;;;;;51.03;31.25;;;4.50;87.50;;;;;;5051087;28;20041;-69
2021/03/10 06:43:20;;;;;;;51.72;28.83;;;4.40;87.30;;;;;;5066201;28;20040;-69
2021/03/10 06:45:46;;;;;;;50.47;29.25;;;4.50;87.30;;;;;;5056294;28;20051;-69
2021/03/10 06:48:22;;;;;;;51.25;29.30;;;4.40;87.20;;;;;;5057491;28;20045;-70
2021/03/10 06:50:48;;;;;;;45.35;27.50;;;4.50;87.10;;;;;;5066308;28;20044;-68
2021/03/10 06:53:15;;;;;;;45.50;28.05;;;4.50;87.00;;;;;;5066134;28;20471;-69
2021/03/10 06:55:43;;;;;;;47.63;28.17;;;4.50;86.70;;;;;;5067691;28;20074;-69
2021/03/10 06:58:10;;;;;;;46.28;27.15;;;4.60;86.30;;;;;;5062181;28;20393;-70
2021/03/10 07:00:37;;;;;;;37.95;25.33;;;4.50;86.10;;;;;;5051748;28;20039;-68
2021/03/10 07:03:03;;;;;;;39.58;24.52;;;4.60;85.70;;;;;;5055057;28;20121;-69
2021/03/10 07:05:30;;;;;;;42.63;24.92;;;4.60;85.50;;;;;;5070846;28;20543;-70
2021/03/10 07:07:56;;;;;;;39.25;25.90;;;4.60;85.20;;;;;;5067306;28;20028;-69
2021/03/10 07:10:23;;;;;;;41.33;26.67;;;4.70;84.90;;;;;;5058000;28;20164;-69
2021/03/10 07:12:49;;;;;;;40.63;24.00;;;4.70;84.70;;;;;;5057120;28;20052;-69
2021/03/10 07:15:15;;;;;;;37.83;23.88;;;4.70;84.50;;;;;;5064346;28;20383;-70
2021/03/10 07:17:42;;;;;;;43.05;26.23;;;4.70;84.30;;;;;;5053189;28;20028;-69
2021/03/10 07:20:08;;;;;;;33.28;21.00;;;4.80;84.00;;;;;;5067360;28;20037;-69
2021/03/10 07:22:45;;;;;;;39.83;23.92;;;4.80;83.60;;;;;;5055469;28;20471;-69
2021/03/10 07:25:32;;;;;;;33.40;22.08;;;4.80;83.20;;;;;;5066752;28;20072;-68
2021/03/10 07:28:11;;;;;;;33.95;20.58;;;4.90;82.90;;;;;;5059474;28;20039;-69
2021/03/10 07:30:45;;;;;;;30.08;19.02;;;4.90;82.20;;;;;;5060795;28;20025;-69
2021/03/10 07:33:16;;;;;;;33.92;20.77;;;4.90;82.10;;;;;;5052409;28;20116;-69
2021/03/10 07:35:57;;;;;;;31.85;20.67;;;4.90;81.70;;;;;;5060121;28;20038;-69
2021/03/10 07:38:34;;;;;;;31.00;20.20;;;5.00;81.50;;;;;;5054978;28;20550;-70
2021/03/10 07:41:06;;;;;;;30.65;19.77;;;5.00;81.50;;;;;;5049446;28;20032;-69
2021/03/10 07:43:47;;;;;;;28.35;19.08;;;5.00;81.20;;;;;;5061204;28;20032;-69
2021/03/10 07:46:33;;;;;;;27.70;17.42;;;5.10;80.80;;;;;;5057720;28;20269;-69
2021/03/10 07:49:14;;;;;;;29.13;18.10;;;5.10;80.40;;;;;;5064992;28;20036;-70
2021/03/10 07:51:39;;;;;;;25.13;16.70;;;5.10;80.00;;;;;;5067932;28;20029;-69
2021/03/10 07:54:27;;;;;;;27.95;17.33;;;5.10;80.00;;;;;;5057323;28;20028;-70
2021/03/10 07:57:06;;;;;;;22.15;16.30;;;5.10;80.10;;;;;;5059425;28;20073;-69
2021/03/10 07:59:32;;;;;;;24.90;17.08;;;5.20;80.00;;;;;;5043065;28;20079;-72
2021/03/10 08:02:08;;;;;;;25.60;16.75;;;5.20;79.80;;;;;;5043767;28;20065;-69
2021/03/10 08:04:37;;;;;;;21.83;15.45;;;5.30;79.70;;;;;;5036446;28;20033;-70
2021/03/10 08:07:02;;;;;;;23.80;16.40;;;5.30;79.20;;;;;;5039804;28;20505;-71
2021/03/10 08:09:29;;;;;;;23.60;16.42;;;5.40;79.10;;;;;;5039214;28;20033;-69
2021/03/10 08:12:12;;;;;;;23.83;15.15;;;5.40;79.10;;;;;;5043123;28;20033;-69
2021/03/10 08:14:46;;;;;;;22.90;15.88;;;5.50;78.70;;;;;;5053586;28;20036;-68
2021/03/10 08:17:27;;;;;;;24.50;16.40;;;5.60;78.80;;;;;;5069430;28;20398;-68
2021/03/10 08:20:04;;;;;;;24.25;15.27;;;5.60;78.20;;;;;;5063412;28;20418;-69
2021/03/10 08:22:31;;;;;;;23.92;16.27;;;5.70;78.10;;;;;;5067131;28;20029;-70
2021/03/10 08:24:58;;;;;;;28.25;14.95;;;5.70;78.20;;;;;;5070335;28;20095;-69
2021/03/10 08:27:34;;;;;;;22.00;15.57;;;5.90;77.80;;;;;;5067538;28;20029;-69
2021/03/10 08:30:02;;;;;;;22.73;15.52;;;6.00;77.60;;;;;;5072474;28;20037;-71
2021/03/10 08:32:30;;;;;;;22.63;15.20;;;6.10;77.40;;;;;;5062854;28;20039;-70
2021/03/10 08:35:11;;;;;;;21.83;14.27;;;6.20;76.80;;;;;;5056540;28;20029;-69
2021/03/10 08:37:38;;;;;;;20.70;14.18;;;6.40;76.30;;;;;;5048012;28;20032;-70
2021/03/10 08:40:06;;;;;;;23.42;15.57;;;6.60;75.90;;;;;;5070810;28;20472;-71
2021/03/10 08:42:32;;;;;;;22.30;13.90;;;6.60;75.10;;;;;;5069718;28;20051;-74
2021/03/10 08:44:58;;;;;;;20.85;14.30;;;6.80;74.90;;;;;;5068176;28;20471;-70
2021/03/10 08:47:26;;;;;;;22.52;14.00;;;6.90;74.50;;;;;;5067299;28;20051;-70
2021/03/10 08:49:59;;;;;;;23.30;15.07;;;7.00;74.10;;;;;;5029958;28;20024;-71
2021/03/10 08:52:26;;;;;;;21.80;14.82;;;7.10;74.00;;;;;;5028248;28;20024;-73
2021/03/10 08:54:54;;;;;;;20.70;14.68;;;7.10;73.60;;;;;;5043898;28;20643;-71
2021/03/10 08:57:32;;;;;;;23.40;15.02;;;7.10;73.40;;;;;;5026889;28;20029;-73
2021/03/10 08:59:58;;;;;;;21.33;14.45;;;7.10;73.10;;;;;;5032294;28;20071;-70
2021/03/10 09:02:29;;;;;;;20.35;14.30;;;7.20;72.90;;;;;;5034434;28;20037;-69
2021/03/10 09:04:55;;;;;;;21.58;14.70;;;7.30;72.50;;;;;;5040996;28;20082;-72
2021/03/10 09:07:22;;;;;;;21.00;13.68;;;7.50;72.50;;;;;;5038504;28;20032;-72
2021/03/10 09:09:53;;;;;;;24.40;15.15;;;7.50;72.10;;;;;;5038472;28;20052;-71
2021/03/10 09:12:19;;;;;;;27.25;16.20;;;7.60;71.90;;;;;;5030892;28;20043;-69
2021/03/10 09:14:45;;;;;;;20.17;14.13;;;7.90;71.10;;;;;;5041235;28;20040;-70
2021/03/10 09:17:11;;;;;;;20.23;14.43;;;8.10;70.50;;;;;;5033758;28;20044;-73
2021/03/10 09:19:47;;;;;;;23.25;15.00;;;8.20;70.20;;;;;;5032183;28;20048;-70
2021/03/10 09:22:16;;;;;;;19.38;14.27;;;8.40;69.70;;;;;;5039451;28;20547;-70
2021/03/10 09:24:50;;;;;;;21.00;14.55;;;8.60;69.10;;;;;;5045058;28;20520;-73
2021/03/10 09:27:34;;;;;;;26.48;16.25;;;8.80;68.30;;;;;;5044027;28;20033;-70
2021/03/10 09:30:03;;;;;;;26.98;17.10;;;8.90;67.10;;;;;;5041213;28;20040;-72
2021/03/10 09:32:42;;;;;;;26.98;17.30;;;8.90;66.80;;;;;;5040111;28;20487;-69
2021/03/10 09:35:11;;;;;;;24.73;15.63;;;8.70;67.20;;;;;;5042529;28;20040;-69
2021/03/10 09:37:43;;;;;;;22.80;15.77;;;8.80;67.60;;;;;;5041977;28;20024;-72
2021/03/10 09:40:10;;;;;;;25.92;15.23;;;8.90;67.40;;;;;;5040392;28;20036;-70
2021/03/10 09:42:35;;;;;;;22.20;15.80;;;8.80;67.10;;;;;;5034491;28;20074;-71
2021/03/10 09:45:01;;;;;;;24.00;15.70;;;8.80;67.40;;;;;;5049879;28;20037;-74
2021/03/10 09:47:27;;;;;;;26.05;16.63;;;8.90;67.50;;;;;;5051142;28;20426;-71
2021/03/10 09:49:58;;;;;;;24.60;16.38;;;8.80;67.40;;;;;;5056790;28;20032;-70
2021/03/10 09:52:38;;;;;;;23.15;16.27;;;8.90;67.80;;;;;;5050472;28;20040;-70
2021/03/10 09:55:09;;;;;;;25.20;16.85;;;8.90;67.30;;;;;;5052774;28;20542;-69
2021/03/10 09:57:34;;;;;;;24.35;16.35;;;8.90;66.80;;;;;;5046304;28;20092;-72
2021/03/10 10:00:00;;;;;;;25.77;17.10;;;9.00;66.20;;;;;;5049952;28;20250;-68
2021/03/10 10:02:27;;;;;;;24.33;18.00;;;9.00;66.00;;;;;;5032137;28;20036;-74
2021/03/10 10:05:02;;;;;;;23.63;17.27;;;9.00;66.20;;;;;;5048606;28;20056;-72
2021/03/10 10:07:28;;;;;;;;;;;9.10;65.40;;;;;;5066567;28;20039;-70
2021/03/10 10:09:54;;;;;;;28.65;18.67;;;9.10;65.80;;;;;;5063441;28;19916;-69
2021/03/10 10:12:21;;;;;;;24.17;17.33;;;9.20;65.00;;;;;;5065446;28;20440;-69
2021/03/10 10:14:47;;;;;;;24.45;16.83;;;9.30;65.30;;;;;;5063818;28;20059;-69
2021/03/10 10:17:13;;;;;;;25.38;17.67;;;9.20;65.00;;;;;;5057273;28;20053;-70
2021/03/10 10:19:40;;;;;;;23.00;15.80;;;9.20;65.40;;;;;;5065527;28;20037;-69
2021/03/10 10:22:06;;;;;;;25.45;17.15;;;9.30;65.30;;;;;;5062014;28;20408;-70
2021/03/10 10:24:31;;;;;;;25.38;17.40;;;9.30;64.90;;;;;;5062018;28;20109;-70
2021/03/10 10:26:57;;;;;;;23.20;17.00;;;9.20;65.10;;;;;;5064566;28;20376;-70
2021/03/10 10:29:23;;;;;;;25.02;17.70;;;9.30;65.40;;;;;;5065973;28;20029;-69
2021/03/10 10:31:49;;;;;;;25.05;16.95;;;9.20;65.30;;;;;;5059668;28;20028;-75
2021/03/10 10:34:14;;;;;;;26.48;18.27;;;9.40;65.00;;;;;;5061011;28;20036;-70
2021/03/10 10:36:40;;;;;;;25.95;19.10;;;9.60;65.40;;;;;;5056411;28;20033;-70
2021/03/10 10:39:05;;;;;;;28.75;18.48;;;9.60;64.10;;;;;;5058352;28;20040;-70
2021/03/10 10:41:32;;;;;;;27.45;17.23;;;9.70;64.20;;;;;;5058243;28;20116;-70
2021/03/10 10:43:57;;;;;;;26.92;18.45;;;9.70;64.20;;;;;;5058281;28;20025;-71
2021/03/10 10:46:23;;;;;;;26.90;17.92;;;9.90;64.30;;;;;;5066586;28;20067;-70
2021/03/10 10:48:50;;;;;;;32.25;19.63;;;10.00;63.60;;;;;;5066607;28;20093;-70
2021/03/10 10:51:19;;;;;;;26.63;18.02;;;10.10;63.60;;;;;;5065012;28;20039;-71
2021/03/10 10:53:45;;;;;;;32.95;21.38;;;10.10;63.00;;;;;;5064565;28;20017;-70
2021/03/10 10:56:12;;;;;;;28.80;20.85;;;10.10;63.00;;;;;;5065233;28;20033;-70
2021/03/10 10:58:38;;;;;;;30.17;20.88;;;10.20;62.40;;;;;;5059352;28;20119;-73
2021/03/10 11:01:03;;;;;;;30.17;20.10;;;10.20;62.20;;;;;;5060881;28;20560;-70
2021/03/10 11:03:30;;;;;;;31.63;21.10;;;10.30;62.20;;;;;;5064798;28;20036;-68
2021/03/10 11:05:56;;;;;;;30.58;23.38;;;10.60;62.30;;;;;;5062168;28;20438;-71
2021/03/10 11:08:21;;;;;;;34.78;23.52;;;10.60;61.20;;;;;;5065861;28;20036;-70
2021/03/10 11:10:48;;;;;;;34.47;23.63;;;10.60;60.40;;;;;;5067970;28;20036;-70
2021/03/10 11:13:13;;;;;;;33.97;23.98;;;10.90;60.70;;;;;;5051163;28;20104;-70
2021/03/10 11:15:39;;;;;;;34.13;23.63;;;10.90;59.00;;;;;;5054877;28;20544;-70
2021/03/10 11:18:05;;;;;;;38.42;25.30;;;11.00;58.50;;;;;;5063883;28;20033;-71
2021/03/10 11:20:30;;;;;;;39.42;26.05;;;11.10;57.60;;;;;;5059692;28;20054;-73
2021/03/10 11:22:56;;;;;;;36.80;26.55;;;11.20;56.50;;;;;;5064021;28;20044;-71
2021/03/10 11:25:22;;;;;;;36.00;24.90;;;11.30;56.10;;;;;;5059027;28;20055;-69
2021/03/10 11:27:48;;;;;;;33.25;24.85;;;11.50;56.20;;;;;;5066439;28;20394;-70
2021/03/10 11:30:15;;;;;;;36.28;25.92;;;11.50;55.30;;;;;;5058965;28;20021;-70
2021/03/10 11:32:41;;;;;;;37.97;26.48;;;11.60;55.50;;;;;;5067729;28;20427;-70
2021/03/10 11:35:09;;;;;;;36.78;26.25;;;11.60;56.10;;;;;;5066836;28;20083;-71
2021/03/10 11:37:36;;;;;;;36.72;26.35;;;11.50;54.90;;;;;;5062908;28;20036;-70
2021/03/10 11:40:07;;;;;;;35.78;26.75;;;11.50;54.80;;;;;;5061458;28;20135;-71
2021/03/10 11:42:33;;;;;;;35.35;26.17;;;11.60;54.00;;;;;;5053978;28;20117;-70
2021/03/10 11:44:59;;;;;;;39.15;26.73;;;11.60;53.60;;;;;;5058968;28;20464;-70
2021/03/10 11:47:25;;;;;;;36.28;25.77;;;11.60;52.50;;;;;;5055727;28;20048;-70
2021/03/10 11:49:51;;;;;;;36.10;26.67;;;11.60;53.20;;;;;;5055144;28;20041;-70
2021/03/10 11:52:16;;;;;;;40.75;27.52;;;11.50;52.60;;;;;;5056709;28;20048;-70
2021/03/10 11:54:42;;;;;;;36.63;27.33;;;11.40;53.00;;;;;;5061565;28;20057;-73
2021/03/10 11:57:08;;;;;;;39.95;26.95;;;11.50;52.50;;;;;;5062512;28;20036;-69
2021/03/10 11:59:34;;;;;;;39.35;27.40;;;11.80;52.50;;;;;;5071157;28;20461;-72
2021/03/10 12:02:00;;;;;;;36.03;25.70;;;11.90;52.60;;;;;;5061262;28;20443;-70
2021/03/10 12:04:25;;;;;;;36.30;25.83;;;12.00;51.40;;;;;;5053585;28;20036;-71
2021/03/10 12:06:51;;;;;;;39.17;27.10;;;12.20;52.00;;;;;;5054696;28;20037;-71
2021/03/10 12:09:18;;;;;;;38.33;28.23;;;12.30;50.80;;;;;;5049388;28;20036;-71
2021/03/10 12:11:45;;;;;;;39.15;27.48;;;12.20;50.40;;;;;;5051599;28;20040;-69
2021/03/10 12:14:11;;;;;;;40.28;28.58;;;12.20;50.40;;;;;;5054561;28;20046;-70
2021/03/10 12:16:37;;;;;;;42.67;28.67;;;12.30;51.10;;;;;;5048897;28;20103;-70
2021/03/10 12:19:02;;;;;;;37.58;27.10;;;12.20;51.10;;;;;;5056934;28;20025;-70
2021/03/10 12:21:28;;;;;;;39.88;29.33;;;12.10;50.50;;;;;;5056022;28;20033;-69
2021/03/10 12:23:54;;;;;;;39.28;28.10;;;12.00;50.40;;;;;;5057850;28;20116;-70
2021/03/10 12:26:20;;;;;;;39.40;27.58;;;12.10;50.50;;;;;;5050725;28;20028;-73
2021/03/10 12:28:45;;;;;;;39.20;28.08;;;12.00;50.20;;;;;;5050968;28;20033;-70
2021/03/10 12:31:11;;;;;;;39.97;29.20;;;11.90;51.00;;;;;;5056634;28;20033;-70
2021/03/10 12:33:37;;;;;;;38.33;28.42;;;11.70;50.50;;;;;;5060377;28;20120;-69
2021/03/10 12:36:03;;;;;;;38.38;28.40;;;11.60;50.60;;;;;;5057190;28;20452;-70
2021/03/10 12:38:28;;;;;;;40.17;28.88;;;11.70;50.80;;;;;;5052583;28;20044;-71
2021/03/10 12:40:54;;;;;;;40.65;30.10;;;11.70;50.70;;;;;;5048692;28;20041;-69